Time;durP1;ratioP1;P1;durP2;ratioP2;P2;SDS_P1;SDS_P2;PMS_P1;PMS_P2;Temp;Humidity;BMP_temperature;BMP_pressure;BME280_temperature;BME280_humidity;BME280_pressure;Samples;Min_cycle;Max_cycle;Signal;HPM_P1;HPM_P2
2021/12/10 17:33:13;;;;;;;;;;;1.30;99.90;;;;;;4789827;28;5986838;-86
2021/12/10 17:35:43;;;;;;;;;;;1.30;99.90;;;;;;5010054;28;19924;-86
2021/12/10 17:38:11;;;;;;;;;;;1.20;99.90;;;;;;5026535;28;19967;-85
2021/12/10 17:40:38;;;;;;;;;;;1.20;99.90;;;;;;5018508;28;19920;-85
2021/12/10 17:43:06;;;;;;;;;;;1.20;99.90;;;;;;5011803;28;19913;-85
2021/12/10 17:45:34;;;;;;;;;;;1.20;99.90;;;;;;5013296;28;20269;-85
2021/12/10 17:48:01;;;;;;;;;;;1.20;99.90;;;;;;5009707;28;19920;-85
2021/12/10 17:50:29;;;;;;;;;;;1.10;99.90;;;;;;5006306;28;19924;-85
2021/12/10 17:52:58;;;;;;;;;;;1.10;99.90;;;;;;5010065;28;20284;-85
2021/12/10 17:55:32;;;;;;;;;;;1.10;99.90;;;;;;5011429;28;20923;-85
2021/12/10 17:58:00;;;;;;;;;;;1.10;99.90;;;;;;5014540;28;20308;-85
2021/12/10 18:00:25;;;;;;;;;;;1.10;99.90;;;;;;5007861;28;19996;-85
2021/12/10 18:03:00;;;;;;;;;;;1.10;99.90;;;;;;5025988;28;20012;-85
2021/12/10 18:05:26;;;;;;;;;;;1.10;99.90;;;;;;5005398;28;19971;-85
2021/12/10 18:07:54;;;;;;;;;;;1.20;99.90;;;;;;5025284;28;19945;-86
2021/12/10 18:10:26;;;;;;;;;;;1.30;99.90;;;;;;4995152;28;20282;-86
2021/12/10 18:13:03;;;;;;;;;;;1.30;99.90;;;;;;4992274;28;19949;-85
2021/12/10 18:15:33;;;;;;;;;;;1.20;99.90;;;;;;5019360;28;19975;-86
2021/12/10 18:18:01;;;;;;;;;;;1.20;99.90;;;;;;5012832;28;20392;-86
2021/12/10 18:20:38;;;;;;;;;;;1.20;99.90;;;;;;5012481;28;20370;-86
2021/12/10 18:23:07;;;;;;;;;;;1.10;99.90;;;;;;5013604;28;19921;-86
2021/12/10 18:25:39;;;;;;;;;;;1.20;99.90;;;;;;4998610;28;20394;-86
2021/12/10 18:28:05;;;;;;;;;;;1.20;99.90;;;;;;5009008;28;19971;-85
2021/12/10 18:30:31;;;;;;;;;;;1.20;99.90;;;;;;5029946;28;20008;-86
2021/12/10 18:32:57;;;;;;;;;;;1.20;99.90;;;;;;5007454;28;20433;-85
2021/12/10 18:35:26;;;;;;;;;;;1.20;99.90;;;;;;4996133;28;20052;-89
2021/12/10 18:37:52;;;;;;;;;;;1.20;99.90;;;;;;4980416;28;20276;-89
2021/12/10 18:40:33;;;;;;;;;;;1.20;99.90;;;;;;5002066;28;19914;-90
2021/12/10 18:43:01;;;;;;;;;;;1.20;99.90;;;;;;5005060;28;20388;-81
2021/12/10 18:45:32;;;;;;;;;;;1.20;99.90;;;;;;5011702;28;20370;-81
2021/12/10 18:47:59;;;;;;;;;;;1.20;99.90;;;;;;5014906;28;20299;-80
2021/12/10 18:50:37;;;;;;;;;;;1.30;99.90;;;;;;5020130;28;19921;-86
2021/12/10 18:53:07;;;;;;;;;;;1.30;99.90;;;;;;4999569;28;20277;-89
2021/12/10 18:55:36;;;;;;;;;;;1.20;99.90;;;;;;5023866;28;19913;-87
2021/12/10 18:58:08;;;;;;;;;;;1.20;99.90;;;;;;5023692;28;19917;-87
2021/12/10 19:00:39;;;;;;;;;;;1.20;99.90;;;;;;5023042;28;19925;-86
2021/12/10 19:03:18;;;;;;;;;;;1.20;99.90;;;;;;5023593;28;20213;-87
2021/12/10 19:05:46;;;;;;;;;;;1.20;99.90;;;;;;5021597;28;20353;-87
2021/12/10 19:08:23;;;;;;;;;;;1.20;99.90;;;;;;5024053;28;19913;-88
2021/12/10 19:10:52;;;;;;;;;;;1.20;99.90;;;;;;5007665;28;20397;-87
2021/12/10 19:13:23;;;;;;;;;;;1.20;99.90;;;;;;5023740;28;21482;-87
2021/12/10 19:15:52;;;;;;;;;;;1.10;99.90;;;;;;5008074;28;19921;-87
2021/12/10 19:18:21;;;;;;;;;;;1.10;99.90;;;;;;5009769;28;19913;-87
2021/12/10 19:20:52;;;;;;;;;;;1.10;99.90;;;;;;5023215;28;19917;-87
2021/12/10 19:23:21;;;;;;;;;;;1.10;99.90;;;;;;5024061;28;20384;-88
2021/12/10 19:25:57;;;;;;;;;;;1.10;99.90;;;;;;5012780;28;19913;-88
2021/12/10 19:28:43;;;;;;;;;;;1.10;99.90;;;;;;5022845;28;19920;-87
2021/12/10 19:31:13;;;;;;;;;;;1.10;99.90;;;;;;4982172;28;19933;-88
2021/12/10 19:33:48;;;;;;;;;;;1.10;99.90;;;;;;5029276;28;19932;-88
2021/12/10 19:36:19;;;;;;;;;;;1.10;99.90;;;;;;5017694;28;19975;-88
2021/12/10 19:38:53;;;;;;;;;;;1.20;99.90;;;;;;5039839;28;20395;-88
2021/12/10 19:41:24;;;;;;;;;;;1.20;99.90;;;;;;5010991;28;20474;-88
2021/12/10 19:43:52;;;;;;;;;;;1.10;99.90;;;;;;5013832;28;19926;-88
2021/12/10 19:46:35;;;;;;;;;;;1.20;99.90;;;;;;5013621;28;20356;-88
2021/12/10 19:49:08;;;;;;;;;;;1.10;99.90;;;;;;5006631;28;19916;-89
2021/12/10 19:51:37;;;;;;;;;;;1.10;99.90;;;;;;5029621;28;19917;-88
2021/12/10 19:54:15;;;;;;;;;;;1.10;99.90;;;;;;5038071;28;20611;-88
2021/12/10 19:56:45;;;;;;;;;;;1.10;99.90;;;;;;5037224;28;19994;-88
2021/12/10 19:59:14;;;;;;;;;;;1.10;99.90;;;;;;5038950;28;20426;-88
2021/12/10 20:01:50;;;;;;;;;;;1.10;99.90;;;;;;5022987;28;19917;-88
2021/12/10 20:04:16;;;;;;;;;;;1.10;99.90;;;;;;5025620;28;19928;-88
2021/12/10 20:06:46;;;;;;;;;;;1.10;99.90;;;;;;5021756;28;19917;-88
2021/12/10 20:09:12;;;;;;;;;;;1.10;99.90;;;;;;5010901;28;19920;-89
2021/12/10 20:11:42;;;;;;;;;;;1.10;99.90;;;;;;5015956;28;19913;-88
2021/12/10 20:14:10;;;;;;;;;;;1.10;99.90;;;;;;5005153;28;19975;-88
2021/12/10 20:16:42;;;;;;;;;;;1.10;99.90;;;;;;5012206;28;19956;-88
2021/12/10 20:19:10;;;;;;;;;;;1.10;99.90;;;;;;5028149;28;19998;-88
2021/12/10 20:21:36;;;;;;;;;;;1.10;99.90;;;;;;4996532;28;19952;-87
2021/12/10 20:24:05;;;;;;;;;;;1.10;99.90;;;;;;5022012;28;20021;-88
2021/12/10 20:26:38;;;;;;;;;;;1.10;99.90;;;;;;5010606;28;20369;-87
2021/12/10 20:29:11;;;;;;;;;;;1.10;99.90;;;;;;5036043;28;19928;-88
2021/12/10 20:31:44;;;;;;;;;;;1.10;99.90;;;;;;5026971;28;19995;-88
2021/12/10 20:34:14;;;;;;;;;;;1.10;99.90;;;;;;5003270;28;20126;-88
2021/12/10 20:37:01;;;;;;;;;;;1.20;99.90;;;;;;5000368;28;20026;-88
2021/12/10 20:39:29;;;;;;;;;;;1.10;99.90;;;;;;5019046;28;19992;-88
2021/12/10 20:42:03;;;;;;;;;;;1.10;99.90;;;;;;5016383;28;20395;-88
2021/12/10 20:44:33;;;;;;;;;;;1.10;99.90;;;;;;5019118;28;20023;-88
2021/12/10 20:47:14;;;;;;;;;;;1.10;99.90;;;;;;5009984;28;19928;-87
2021/12/10 20:49:50;;;;;;;;;;;1.10;99.90;;;;;;5021831;28;20008;-88
2021/12/10 20:52:24;;;;;;;;;;;1.10;99.90;;;;;;5019173;28;19963;-88
2021/12/10 20:54:51;;;;;;;;;;;1.00;99.90;;;;;;5036636;28;20365;-88
2021/12/10 20:57:22;;;;;;;;;;;1.00;99.90;;;;;;5012038;28;19932;-88
2021/12/10 20:59:49;;;;;;;;;;;1.00;99.90;;;;;;5027644;28;19953;-87
2021/12/10 21:02:17;;;;;;;;;;;1.00;99.90;;;;;;5005042;28;20749;-88
2021/12/10 21:04:51;;;;;;;;;;;1.00;99.90;;;;;;5006323;28;20016;-88
2021/12/10 21:07:24;;;;;;;;;;;0.90;99.90;;;;;;5035831;28;19917;-88
2021/12/10 21:09:55;;;;;;;;;;;1.00;99.90;;;;;;5020323;28;20004;-88
2021/12/10 21:12:25;;;;;;;;;;;1.00;99.90;;;;;;5020213;28;20029;-88
2021/12/10 21:14:54;;;;;;;;;;;0.90;99.90;;;;;;5022129;28;20361;-87
2021/12/10 21:17:23;;;;;;;;;;;1.00;99.90;;;;;;5035032;28;20002;-88
2021/12/10 21:19:52;;;;;;;;;;;1.00;99.90;;;;;;5037197;28;21340;-90
2021/12/10 21:22:18;;;;;;;;;;;1.00;99.90;;;;;;5021134;28;20408;-90
2021/12/10 21:24:49;;;;;;;;;;;0.90;99.90;;;;;;5001021;28;19921;-90
2021/12/10 21:27:17;;;;;;;;;;;0.90;99.90;;;;;;5014296;28;19917;-89
2021/12/10 21:29:59;;;;;;;;;;;0.80;99.90;;;;;;5010650;28;19925;-92
2021/12/10 21:32:33;;;;;;;;;;;0.90;99.90;;;;;;5007065;28;20291;-92
2021/12/10 21:35:05;;;;;;;;;;;0.90;99.90;;;;;;5020290;28;20276;-90
2021/12/10 21:40:19;;;;;;;;;;;0.80;99.90;;;;;;5011975;28;20611;-91
2021/12/10 21:42:47;;;;;;;;;;;0.80;99.90;;;;;;5002118;28;20326;-91
2021/12/10 21:45:45;;;;;;;;;;;0.80;99.90;;;;;;5014480;28;20931;-92
2021/12/10 21:48:12;;;;;;;;;;;0.80;99.90;;;;;;4968550;28;19971;-92
2021/12/10 21:50:44;;;;;;;;;;;0.80;99.90;;;;;;5033698;28;19917;-92
2021/12/10 21:53:12;;;;;;;;;;;0.70;99.90;;;;;;5032591;28;19967;-91
2021/12/10 21:55:41;;;;;;;;;;;0.70;99.90;;;;;;5034405;28;20277;-92
2021/12/10 21:58:08;;;;;;;;;;;0.60;99.90;;;;;;5024106;28;19940;-91
2021/12/10 22:00:40;;;;;;;;;;;0.60;99.90;;;;;;5006033;28;19913;-91
2021/12/10 22:03:09;;;;;;;;;;;0.60;99.90;;;;;;5021664;28;19917;-91
2021/12/10 22:05:39;;;;;;;;;;;0.70;99.90;;;;;;4992842;28;19987;-91
2021/12/10 22:08:05;;;;;;;;;;;0.70;99.90;;;;;;5014898;28;20347;-91
2021/12/10 22:10:31;;;;;;;;;;;0.50;99.90;;;;;;5016331;28;19917;-92
2021/12/10 22:13:00;;;;;;;;;;;0.50;99.90;;;;;;5030850;28;19924;-92
2021/12/10 22:15:43;;;;;;;;;;;0.50;99.90;;;;;;5031954;28;19920;-92
2021/12/10 22:18:11;;;;;;;;;;;0.50;99.90;;;;;;5039789;28;20265;-91
2021/12/10 22:20:40;;;;;;;;;;;0.50;99.90;;;;;;5031022;28;20438;-91
2021/12/10 22:23:10;;;;;;;;;;;0.50;99.90;;;;;;5039214;28;19917;-91
2021/12/10 22:25:39;;;;;;;;;;;0.50;99.90;;;;;;5023638;28;20011;-91
2021/12/10 22:28:09;;;;;;;;;;;0.50;99.90;;;;;;5039530;28;19924;-91
2021/12/10 22:30:40;;;;;;;;;;;0.50;99.90;;;;;;5037368;28;19913;-91
2021/12/10 22:33:11;;;;;;;;;;;0.50;99.90;;;;;;5023178;28;20395;-91
2021/12/10 22:35:44;;;;;;;;;;;0.40;99.90;;;;;;5022030;28;20145;-92
2021/12/10 22:38:11;;;;;;;;;;;0.40;99.90;;;;;;5021171;28;20596;-92
2021/12/10 22:40:55;;;;;;;;;;;0.40;99.90;;;;;;5021088;28;20431;-92
2021/12/10 22:43:24;;;;;;;;;;;0.40;99.90;;;;;;5012194;28;19920;-92
2021/12/10 22:45:55;;;;;;;;;;;0.40;99.90;;;;;;5019904;28;20392;-92
2021/12/10 22:48:23;;;;;;;;;;;0.40;99.90;;;;;;4978606;28;20459;-92
2021/12/10 22:50:58;;;;;;;;;;;0.40;99.90;;;;;;5004032;28;21009;-92
2021/12/10 22:53:29;;;;;;;;;;;0.50;99.90;;;;;;5021140;28;20351;-92
2021/12/10 22:55:55;;;;;;;;;;;0.50;99.90;;;;;;4980895;28;19913;-92
2021/12/10 22:58:24;;;;;;;;;;;0.40;99.90;;;;;;5008605;28;19920;-91
2021/12/10 23:01:01;;;;;;;;;;;0.40;99.90;;;;;;4996699;28;19963;-92
2021/12/10 23:03:30;;;;;;;;;;;0.40;99.90;;;;;;5004185;28;19975;-91
2021/12/10 23:05:58;;;;;;;;;;;0.40;99.90;;;;;;5020370;28;19917;-92
2021/12/10 23:08:32;;;;;;;;;;;0.40;99.90;;;;;;5020264;28;19917;-91
2021/12/10 23:11:03;;;;;;;;;;;0.50;99.90;;;;;;5000162;28;20411;-91
2021/12/10 23:13:32;;;;;;;;;;;0.40;99.90;;;;;;5020951;28;19917;-92
2021/12/10 23:15:59;;;;;;;;;;;0.40;99.90;;;;;;5005687;28;19917;-91
2021/12/10 23:18:30;;;;;;;;;;;0.40;99.90;;;;;;5001394;28;20112;-91
2021/12/10 23:20:58;;;;;;;;;;;0.40;99.90;;;;;;4991314;28;20369;-91
2021/12/10 23:23:23;;;;;;;;;;;0.40;99.90;;;;;;5021787;28;19917;-91
2021/12/10 23:25:52;;;;;;;;;;;0.40;99.90;;;;;;5020565;28;20419;-91
2021/12/10 23:28:35;;;;;;;;;;;0.50;99.90;;;;;;5021406;28;19940;-91
2021/12/10 23:31:06;;;;;;;;;;;0.40;99.90;;;;;;5009385;28;19923;-91
2021/12/10 23:33:34;;;;;;;;;;;0.40;99.90;;;;;;5035822;28;19925;-91
2021/12/10 23:36:05;;;;;;;;;;;0.40;99.90;;;;;;5022626;28;20342;-91
2021/12/10 23:38:34;;;;;;;;;;;0.40;99.90;;;;;;5029425;28;19917;-91
2021/12/10 23:41:02;;;;;;;;;;;0.40;99.90;;;;;;5035900;28;20544;-92
2021/12/10 23:43:30;;;;;;;;;;;0.40;99.90;;;;;;5026950;28;19940;-91
2021/12/10 23:46:01;;;;;;;;;;;0.40;99.90;;;;;;5017959;28;19914;-91
2021/12/10 23:48:42;;;;;;;;;;;0.40;99.90;;;;;;5037693;28;19971;-92
2021/12/10 23:51:11;;;;;;;;;;;0.40;99.90;;;;;;5020249;28;20428;-92
2021/12/10 23:53:39;;;;;;;;;;;0.40;99.90;;;;;;5038210;28;20356;-91
2021/12/10 23:56:08;;;;;;;;;;;0.40;99.90;;;;;;5020541;28;20330;-92
2021/12/10 23:58:41;;;;;;;;;;;0.40;99.90;;;;;;5022657;28;19987;-91
